Time;durP1;ratioP1;P1;durP2;ratioP2;P2;SDS_P1;SDS_P2;PMS_P1;PMS_P2;Temp;Humidity;BMP_temperature;BMP_pressure;BME280_temperature;BME280_humidity;BME280_pressure;Samples;Min_cycle;Max_cycle;Signal;HPM_P1;HPM_P2
2022/06/12 00:02:25;;;;;;;5.07;3.80;;;19.90;99.90;;;;;;4966991;28;20185;-71
2022/06/12 00:04:51;;;;;;;5.17;4.50;;;19.90;99.90;;;;;;4966628;28;20267;-72
2022/06/12 00:07:17;;;;;;;8.03;4.17;;;19.90;99.90;;;;;;4966692;28;20209;-71
2022/06/12 00:09:43;;;;;;;4.87;4.47;;;19.80;99.90;;;;;;4966208;28;20440;-70
2022/06/12 00:12:09;;;;;;;5.40;3.27;;;19.80;99.90;;;;;;4966112;28;21492;-72
2022/06/12 00:14:35;;;;;;;4.17;3.63;;;19.80;99.90;;;;;;4966715;28;20505;-72
2022/06/12 00:17:01;;;;;;;4.50;4.10;;;19.80;99.90;;;;;;4966331;28;20903;-71
2022/06/12 00:19:28;;;;;;;4.43;3.93;;;19.80;99.90;;;;;;4965313;28;20269;-71
2022/06/12 00:21:54;;;;;;;4.97;4.47;;;19.90;99.90;;;;;;4966541;28;20192;-70
2022/06/12 00:24:21;;;;;;;4.70;4.30;;;19.80;99.90;;;;;;4965154;28;20674;-72
2022/06/12 00:26:50;;;;;;;6.27;4.43;;;19.70;99.90;;;;;;4966293;28;20271;-72
2022/06/12 00:29:29;;;;;;;4.73;3.97;;;19.70;99.90;;;;;;4966108;28;20409;-71
2022/06/12 00:31:59;;;;;;;4.70;4.30;;;19.70;99.90;;;;;;4966373;28;20456;-71
2022/06/12 00:34:29;;;;;;;4.80;4.30;;;19.60;99.90;;;;;;5004094;22;20506;-71
2022/06/12 00:36:55;;;;;;;4.23;3.83;;;19.70;99.90;;;;;;4967867;28;20416;-72
2022/06/12 00:39:22;;;;;;;4.70;4.30;;;19.70;99.90;;;;;;4984581;28;20411;-71
2022/06/12 00:41:50;;;;;;;4.77;4.37;;;19.50;99.90;;;;;;4984975;28;20506;-70
2022/06/12 00:44:19;;;;;;;6.23;4.37;;;19.50;99.90;;;;;;4974433;28;20933;-69
2022/06/12 00:46:52;;;;;;;6.10;4.27;;;19.40;99.90;;;;;;4965980;28;20906;-70
2022/06/12 00:49:41;;;;;;;4.57;4.17;;;19.30;99.90;;;;;;4966135;28;20409;-70
2022/06/12 00:52:21;;;;;;;4.27;3.97;;;19.40;99.90;;;;;;4965960;28;20507;-69
2022/06/12 00:54:56;;;;;;;6.93;3.70;;;19.30;99.90;;;;;;4965844;28;20945;-70
2022/06/12 00:57:24;;;;;;;5.10;3.83;;;19.40;99.90;;;;;;4953143;28;21298;-71
2022/06/12 01:00:04;;;;;;;3.73;3.43;;;19.40;99.90;;;;;;4965806;28;20421;-71
2022/06/12 01:02:32;;;;;;;4.77;4.13;;;19.30;99.90;;;;;;4952675;28;20486;-72
2022/06/12 01:07:49;;;;;;;5.00;4.50;;;19.30;99.90;;;;;;4965964;28;20414;-70
2022/06/12 01:10:17;;;;;;;4.50;3.80;;;19.30;99.90;;;;;;4965868;28;20411;-71
2022/06/12 01:12:52;;;;;;;4.63;4.23;;;19.20;99.90;;;;;;4965396;28;20460;-72
2022/06/12 01:15:23;;;;;;;3.97;3.47;;;19.30;99.90;;;;;;4948790;28;20822;-73
2022/06/12 01:17:50;;;;;;;4.57;4.23;;;19.30;99.90;;;;;;4965615;28;20496;-71
2022/06/12 01:20:24;;;;;;;7.00;4.73;;;19.30;99.90;;;;;;4965785;28;20419;-70
2022/06/12 01:23:15;;;;;;;6.63;4.50;;;19.20;99.90;;;;;;4965318;28;20419;-72
2022/06/12 01:26:05;;;;;;;6.53;4.77;;;19.20;99.90;;;;;;4951360;28;20428;-71
2022/06/12 01:28:45;;;;;;;5.17;4.10;;;19.20;99.90;;;;;;4965428;28;20410;-71
2022/06/12 01:31:19;;;;;;;4.20;3.80;;;19.20;99.90;;;;;;4965197;28;20440;-71
2022/06/12 01:34:20;;;;;;;4.73;3.83;;;19.20;99.90;;;;;;4965154;28;20452;-71
2022/06/12 01:37:07;;;;;;;4.40;3.80;;;19.20;99.90;;;;;;4965151;28;20413;-70
2022/06/12 01:39:45;;;;;;;6.80;4.70;;;19.10;99.90;;;;;;4964894;28;21012;-72
2022/06/12 01:42:27;;;;;;;5.27;4.83;;;19.00;99.90;;;;;;4965110;28;20404;-72
2022/06/12 01:45:24;;;;;;;5.27;4.77;;;19.00;99.90;;;;;;4965452;28;21016;-71
2022/06/12 01:48:14;;;;;;;4.77;4.37;;;19.00;99.90;;;;;;4961499;28;20495;-71
2022/06/12 01:51:19;;;;;;;4.63;4.23;;;19.00;99.90;;;;;;4964932;28;20413;-71
2022/06/12 01:54:29;;;;;;;6.43;4.00;;;18.90;99.90;;;;;;4929255;28;20440;-74
2022/06/12 01:57:01;;;;;;;4.63;4.10;;;18.90;99.90;;;;;;4878888;29;20431;-72
2022/06/12 01:59:38;;;;;;;4.73;4.33;;;18.90;99.90;;;;;;4957313;28;20423;-72
2022/06/12 02:02:17;;;;;;;4.80;4.40;;;18.90;99.90;;;;;;4964867;28;20787;-70
2022/06/12 02:04:55;;;;;;;4.57;4.27;;;18.90;99.90;;;;;;4964921;28;20428;-70
2022/06/12 02:07:42;;;;;;;4.97;4.47;;;18.90;99.90;;;;;;4965157;28;21357;-70
2022/06/12 02:10:19;;;;;;;4.10;3.70;;;18.90;99.90;;;;;;4964835;28;20861;-71
2022/06/12 02:13:13;;;;;;;4.30;3.90;;;18.80;99.90;;;;;;4964875;28;20483;-70
2022/06/12 02:15:45;;;;;;;4.00;3.60;;;18.70;99.90;;;;;;4964680;28;20421;-69
2022/06/12 02:18:14;;;;;;;5.20;4.10;;;18.70;99.90;;;;;;4965088;28;20405;-70
2022/06/12 02:20:46;;;;;;;4.80;4.40;;;18.70;99.90;;;;;;4947332;28;20432;-71
2022/06/12 02:23:24;;;;;;;4.87;4.00;;;18.60;99.90;;;;;;4964729;28;20503;-70
2022/06/12 02:25:54;;;;;;;5.20;4.47;;;18.60;99.90;;;;;;4964759;28;20778;-71
2022/06/12 02:28:26;;;;;;;4.80;4.50;;;18.60;99.90;;;;;;4964686;28;20419;-71
2022/06/12 02:30:57;;;;;;;4.80;4.40;;;18.60;99.90;;;;;;4964903;28;20880;-70
2022/06/12 02:33:45;;;;;;;5.43;4.43;;;18.50;99.90;;;;;;4964761;28;20452;-70
2022/06/12 02:36:17;;;;;;;4.80;4.40;;;18.50;99.90;;;;;;4961303;28;20420;-71
2022/06/12 02:38:48;;;;;;;5.37;4.83;;;18.50;99.90;;;;;;4964831;28;20421;-71
2022/06/12 02:41:31;;;;;;;5.30;4.80;;;18.50;99.90;;;;;;4964614;28;20413;-71
2022/06/12 02:44:01;;;;;;;4.63;4.33;;;18.40;99.90;;;;;;4968227;28;20440;-70
2022/06/12 02:46:43;;;;;;;4.67;4.27;;;18.50;99.90;;;;;;4968211;28;20694;-71
2022/06/12 02:49:10;;;;;;;6.80;4.80;;;18.30;99.90;;;;;;4968515;28;20416;-72
2022/06/12 02:51:46;;;;;;;7.53;4.60;;;18.30;99.90;;;;;;4967618;28;20452;-70
2022/06/12 02:54:38;;;;;;;5.23;4.03;;;18.30;99.90;;;;;;4968358;28;20420;-70
2022/06/12 02:57:30;;;;;;;4.63;3.97;;;18.30;99.90;;;;;;4968034;28;20409;-71
2022/06/12 03:00:25;;;;;;;5.70;4.97;;;18.30;99.90;;;;;;4943587;28;20458;-71
2022/06/12 03:03:19;;;;;;;4.10;3.80;;;18.30;99.90;;;;;;4967894;28;20409;-70
2022/06/12 03:05:49;;;;;;;5.93;4.50;;;18.40;99.90;;;;;;4956475;28;20432;-69
2022/06/12 03:08:18;;;;;;;5.13;3.93;;;18.30;99.90;;;;;;4968122;28;20420;-72
2022/06/12 03:10:48;;;;;;;5.53;5.03;;;18.30;99.90;;;;;;4967734;28;20416;-70
2022/06/12 03:13:16;;;;;;;4.60;4.30;;;18.30;99.90;;;;;;4968025;28;20401;-71
2022/06/12 03:16:07;;;;;;;5.67;5.17;;;18.30;99.90;;;;;;4967855;28;20408;-69
2022/06/12 03:18:35;;;;;;;5.00;4.60;;;18.20;99.90;;;;;;4968521;28;20409;-71
2022/06/12 03:21:06;;;;;;;5.20;4.70;;;18.20;99.90;;;;;;4967664;28;20416;-71
2022/06/12 03:23:37;;;;;;;5.37;4.90;;;18.10;99.90;;;;;;4968024;28;20433;-71
2022/06/12 03:26:08;;;;;;;5.33;4.50;;;18.10;99.90;;;;;;4967320;28;20416;-70
2022/06/12 03:28:57;;;;;;;4.90;4.50;;;18.00;99.90;;;;;;4967841;28;20959;-72
2022/06/12 03:31:52;;;;;;;4.93;4.37;;;18.00;99.90;;;;;;4967517;28;20487;-71
2022/06/12 03:34:27;;;;;;;4.90;4.40;;;18.10;99.90;;;;;;4944864;28;20560;-70
2022/06/12 03:37:24;;;;;;;6.80;4.80;;;18.10;99.90;;;;;;4967312;28;20447;-71
2022/06/12 03:40:00;;;;;;;6.10;4.90;;;17.90;99.90;;;;;;4953894;28;20461;-71
2022/06/12 03:42:43;;;;;;;5.87;5.27;;;17.90;99.90;;;;;;4967020;28;20428;-72
2022/06/12 03:45:39;;;;;;;8.00;5.80;;;17.90;99.90;;;;;;4967240;28;20975;-71
2022/06/12 03:48:26;;;;;;;6.00;5.40;;;17.80;99.90;;;;;;4967307;28;20511;-71
2022/06/12 03:51:15;;;;;;;5.30;4.90;;;17.80;99.90;;;;;;4967394;28;20834;-71
2022/06/12 03:54:22;;;;;;;4.70;4.30;;;17.90;99.90;;;;;;4966898;28;20495;-69
2022/06/12 03:59:46;;;;;;;5.70;4.97;;;18.00;99.90;;;;;;4967001;28;20426;-71
2022/06/12 04:02:15;;;;;;;5.17;4.70;;;18.00;99.90;;;;;;4967213;28;20419;-73
2022/06/12 04:04:43;;;;;;;4.87;4.37;;;18.10;99.90;;;;;;4967096;28;20449;-72
2022/06/12 04:07:12;;;;;;;5.07;4.60;;;18.20;99.90;;;;;;4967051;28;20408;-71
2022/06/12 04:09:42;;;;;;;5.47;4.90;;;18.30;99.90;;;;;;4966580;28;20416;-71
2022/06/12 04:12:16;;;;;;;5.07;4.67;;;18.20;99.90;;;;;;4967113;28;20464;-71
2022/06/12 04:14:58;;;;;;;5.60;4.93;;;18.10;99.90;;;;;;4967068;28;20424;-70
2022/06/12 04:17:24;;;;;;;5.37;4.87;;;18.10;99.90;;;;;;4966802;28;20408;-70
2022/06/12 04:19:59;;;;;;;5.33;4.83;;;18.10;99.90;;;;;;4967007;28;20408;-71
2022/06/12 04:22:32;;;;;;;5.90;5.30;;;18.20;99.90;;;;;;4949109;28;20428;-70
2022/06/12 04:25:05;;;;;;;6.00;5.40;;;18.20;99.90;;;;;;4966258;28;20440;-70
2022/06/12 04:27:39;;;;;;;7.80;7.10;;;18.20;99.90;;;;;;4966409;28;20508;-71
2022/06/12 04:30:16;;;;;;;8.20;7.50;;;18.20;99.90;;;;;;4966587;28;20431;-71
2022/06/12 04:32:42;;;;;;;8.17;6.90;;;18.30;99.90;;;;;;4966195;28;20531;-72
2022/06/12 04:35:08;;;;;;;6.40;5.90;;;18.40;99.90;;;;;;4966333;28;20453;-70
2022/06/12 04:37:34;;;;;;;8.27;6.73;;;18.40;99.90;;;;;;4966260;28;20413;-72
2022/06/12 04:40:03;;;;;;;7.17;6.57;;;18.40;99.90;;;;;;4966031;28;20439;-70
2022/06/12 04:42:31;;;;;;;8.10;7.33;;;18.50;99.90;;;;;;4966331;28;20646;-71
2022/06/12 04:45:03;;;;;;;7.80;7.03;;;18.50;99.90;;;;;;4966291;28;20870;-70
2022/06/12 04:47:30;;;;;;;7.17;6.20;;;18.50;99.90;;;;;;4966255;28;20416;-72
2022/06/12 04:49:56;;;;;;;6.60;6.00;;;18.50;99.90;;;;;;4965971;28;20428;-70
2022/06/12 04:52:25;;;;;;;5.83;5.43;;;18.60;99.90;;;;;;4966183;28;20479;-74
2022/06/12 04:54:51;;;;;;;7.07;6.30;;;18.60;99.90;;;;;;4965888;28;20526;-73
2022/06/12 04:57:17;;;;;;;7.20;6.53;;;18.60;99.90;;;;;;4965862;28;21781;-73
2022/06/12 04:59:44;;;;;;;7.43;6.40;;;18.70;99.90;;;;;;4966172;28;20424;-71
2022/06/12 05:02:10;;;;;;;7.30;6.20;;;18.70;99.90;;;;;;4965336;28;20416;-72
2022/06/12 05:04:36;;;;;;;6.53;5.90;;;18.70;99.90;;;;;;4965085;28;21020;-71
2022/06/12 05:07:04;;;;;;;8.20;6.70;;;18.80;99.90;;;;;;4965838;28;20512;-72
2022/06/12 05:09:33;;;;;;;7.73;6.70;;;18.90;99.90;;;;;;4965809;28;20424;-71
2022/06/12 05:11:59;;;;;;;7.03;6.40;;;19.10;99.90;;;;;;4965344;28;20993;-71
2022/06/12 05:14:25;;;;;;;5.60;5.20;;;19.20;99.90;;;;;;4965617;28;20460;-73
2022/06/12 05:16:55;;;;;;;7.60;5.57;;;19.30;99.90;;;;;;4965678;28;20177;-70
2022/06/12 05:19:25;;;;;;;5.70;5.20;;;19.40;99.90;;;;;;4965717;28;20452;-70
2022/06/12 05:21:51;;;;;;;7.37;5.63;;;19.50;99.90;;;;;;4965780;28;20457;-70
2022/06/12 05:24:17;;;;;;;5.60;5.10;;;19.60;99.90;;;;;;4965195;28;20433;-70
2022/06/12 05:26:45;;;;;;;5.50;5.00;;;19.80;99.90;;;;;;4965318;28;20683;-71
2022/06/12 05:29:27;;;;;;;5.73;5.27;;;19.80;99.90;;;;;;4965499;28;20425;-70
2022/06/12 05:31:54;;;;;;;5.40;4.80;;;20.00;99.90;;;;;;4964306;28;20837;-70
2022/06/12 05:34:21;;;;;;;6.47;5.97;;;20.00;99.90;;;;;;4965163;28;20456;-71
2022/06/12 05:36:46;;;;;;;6.13;5.63;;;20.20;99.90;;;;;;4965334;28;20585;-69
2022/06/12 05:39:12;;;;;;;5.80;4.97;;;20.30;99.90;;;;;;4965326;28;20929;-73
2022/06/12 05:41:38;;;;;;;4.87;4.13;;;20.40;99.90;;;;;;4964949;28;20243;-70
2022/06/12 05:44:04;;;;;;;5.03;4.63;;;20.50;99.90;;;;;;4965575;28;20396;-71
2022/06/12 05:46:30;;;;;;;6.27;5.67;;;20.60;99.90;;;;;;4965282;28;20209;-71
2022/06/12 05:48:56;;;;;;;6.10;5.50;;;20.70;99.90;;;;;;4965245;28;20452;-73
2022/06/12 05:51:21;;;;;;;5.50;5.00;;;20.80;99.90;;;;;;4965165;28;20224;-71
2022/06/12 05:53:47;;;;;;;5.67;5.27;;;20.90;99.90;;;;;;4964990;28;20197;-70
2022/06/12 05:56:17;;;;;;;6.17;5.30;;;21.00;99.90;;;;;;4964890;28;20239;-71
2022/06/12 05:58:43;;;;;;;5.63;5.13;;;21.10;99.90;;;;;;4964367;28;20689;-71
2022/06/12 06:01:13;;;;;;;5.40;4.90;;;21.30;99.90;;;;;;4965290;28;20833;-71
2022/06/12 06:03:38;;;;;;;6.43;5.10;;;21.40;99.90;;;;;;4965104;28;20479;-71
2022/06/12 06:06:06;;;;;;;6.00;5.50;;;21.60;99.90;;;;;;4965061;28;20917;-71
2022/06/12 06:08:32;;;;;;;4.70;4.37;;;21.60;99.90;;;;;;4965019;28;20227;-70
2022/06/12 06:10:58;;;;;;;5.30;4.87;;;21.70;99.90;;;;;;4964602;28;20858;-73
2022/06/12 06:13:23;;;;;;;5.77;5.20;;;21.90;99.90;;;;;;4964997;28;20220;-69
2022/06/12 06:15:50;;;;;;;5.27;4.87;;;22.00;99.90;;;;;;4965009;28;20178;-71
2022/06/12 06:18:17;;;;;;;6.37;5.17;;;22.10;99.90;;;;;;4968485;28;20185;-71
2022/06/12 06:20:43;;;;;;;6.27;5.77;;;22.00;99.90;;;;;;4968681;28;20408;-71
2022/06/12 06:23:09;;;;;;;5.87;5.30;;;22.00;99.90;;;;;;4968772;28;20845;-70
2022/06/12 06:25:36;;;;;;;6.83;5.43;;;22.10;99.90;;;;;;4968511;28;20412;-70
2022/06/12 06:28:03;;;;;;;6.00;5.40;;;22.10;99.90;;;;;;4966989;28;20416;-71
2022/06/12 06:30:29;;;;;;;6.30;5.70;;;22.10;99.90;;;;;;4968904;28;20475;-70
2022/06/12 06:32:56;;;;;;;7.03;6.00;;;22.20;99.90;;;;;;4968022;28;20538;-70
2022/06/12 06:35:22;;;;;;;5.50;5.00;;;22.20;99.90;;;;;;4968737;28;20615;-70
2022/06/12 06:37:49;;;;;;;6.30;5.70;;;22.30;99.90;;;;;;4968589;28;20778;-71
2022/06/12 06:40:17;;;;;;;7.57;5.87;;;22.40;99.90;;;;;;4968105;28;20416;-70
2022/06/12 06:42:42;;;;;;;5.07;4.60;;;22.40;99.90;;;;;;4968335;28;20420;-72
2022/06/12 06:47:55;;;;;;;4.90;4.37;;;22.40;99.90;;;;;;4968235;28;20188;-72
2022/06/12 06:50:22;;;;;;;5.13;4.63;;;22.70;99.90;;;;;;4968272;28;20429;-72
2022/06/12 06:52:47;;;;;;;4.50;4.10;;;22.90;99.90;;;;;;4968257;28;20197;-70
2022/06/12 06:55:14;;;;;;;4.50;4.10;;;23.10;99.90;;;;;;4967707;28;20491;-72
2022/06/12 06:57:42;;;;;;;4.97;4.50;;;23.30;99.90;;;;;;4968207;28;20177;-71
2022/06/12 07:00:12;;;;;;;5.10;4.60;;;23.50;99.90;;;;;;4967313;28;20424;-71
2022/06/12 07:05:14;;;;;;;4.87;4.47;;;23.60;99.90;;;;;;5003654;28;20753;-71
2022/06/12 07:07:39;;;;;;;6.23;5.53;;;23.70;99.90;;;;;;5005625;28;20413;-72
2022/06/12 07:10:08;;;;;;;7.33;4.70;;;23.50;99.90;;;;;;5006969;28;20399;-71
2022/06/12 07:12:34;;;;;;;5.17;4.60;;;23.20;99.90;;;;;;5006649;28;20199;-71
2022/06/12 07:15:00;;;;;;;5.43;4.90;;;23.30;99.90;;;;;;5006700;28;20442;-71
2022/06/12 07:17:26;;;;;;;5.70;4.80;;;23.40;99.90;;;;;;5006706;28;20176;-72
2022/06/12 07:19:52;;;;;;;6.23;5.20;;;23.50;99.90;;;;;;5002835;28;20176;-72
2022/06/12 07:22:17;;;;;;;5.27;4.23;;;23.50;99.90;;;;;;4987209;28;20212;-71
2022/06/12 07:24:43;;;;;;;4.87;4.47;;;23.50;99.90;;;;;;4986997;28;20530;-72
2022/06/12 07:27:08;;;;;;;5.10;4.70;;;23.60;99.90;;;;;;4986311;28;20183;-71
2022/06/12 07:29:34;;;;;;;6.10;4.73;;;23.50;99.90;;;;;;4986764;28;20185;-71
2022/06/12 07:32:00;;;;;;;4.83;4.37;;;23.70;99.90;;;;;;4987144;28;20602;-72
2022/06/12 07:34:26;;;;;;;5.40;4.50;;;23.70;99.90;;;;;;4968999;28;20440;-70
2022/06/12 07:36:53;;;;;;;6.50;4.70;;;23.60;99.90;;;;;;5006392;28;20247;-72
2022/06/12 07:39:29;;;;;;;5.20;4.70;;;23.60;99.90;;;;;;5006608;28;20411;-73
2022/06/12 07:41:55;;;;;;;5.07;4.57;;;23.90;99.90;;;;;;5006214;28;20418;-70
2022/06/12 07:44:24;;;;;;;8.17;4.10;;;23.90;99.90;;;;;;5006262;28;20447;-71
2022/06/12 07:46:52;;;;;;;5.63;4.70;;;24.00;99.90;;;;;;5006165;28;20411;-71
2022/06/12 07:49:20;;;;;;;4.57;4.27;;;24.10;99.90;;;;;;5005716;28;20477;-70
2022/06/12 07:51:46;;;;;;;4.47;4.17;;;24.10;99.90;;;;;;5006041;28;21010;-71
2022/06/12 07:54:12;;;;;;;4.23;3.87;;;24.00;99.90;;;;;;5006054;28;20439;-72
2022/06/12 07:56:38;;;;;;;6.00;5.00;;;23.80;99.90;;;;;;5006141;28;20429;-70
2022/06/12 07:59:06;;;;;;;4.60;4.20;;;23.90;99.90;;;;;;4986456;28;20228;-71
2022/06/12 08:01:31;;;;;;;7.97;4.47;;;24.00;99.90;;;;;;4986701;28;20426;-70
2022/06/12 08:03:58;;;;;;;6.33;4.07;;;24.00;99.90;;;;;;4986206;28;20459;-69
2022/06/12 08:06:25;;;;;;;5.17;4.07;;;24.10;99.90;;;;;;4986558;28;20188;-71
2022/06/12 08:08:51;;;;;;;5.60;4.17;;;24.50;99.90;;;;;;4986103;28;20412;-70
2022/06/12 08:11:17;;;;;;;5.90;3.37;;;24.60;99.90;;;;;;4986339;28;20907;-73
2022/06/12 08:13:43;;;;;;;5.10;4.23;;;24.70;99.90;;;;;;4986215;28;20435;-70
2022/06/12 08:16:10;;;;;;;6.07;5.57;;;25.00;99.90;;;;;;4985882;28;20415;-72
2022/06/12 08:18:35;;;;;;;5.23;4.70;;;25.10;99.90;;;;;;4986147;28;20227;-72
2022/06/12 08:21:05;;;;;;;7.20;4.30;;;24.70;99.90;;;;;;4985609;28;20420;-70
2022/06/12 08:23:43;;;;;;;5.70;5.17;;;24.80;99.90;;;;;;4986089;28;20219;-69
2022/06/12 08:26:14;;;;;;;4.60;4.20;;;24.70;99.90;;;;;;4986011;28;20408;-71
2022/06/12 08:28:46;;;;;;;5.37;4.50;;;24.60;99.90;;;;;;4985174;28;20974;-69
2022/06/12 08:31:15;;;;;;;4.40;4.00;;;24.90;99.90;;;;;;4985832;28;20990;-71
2022/06/12 08:33:44;;;;;;;4.90;3.97;;;24.90;99.90;;;;;;4985625;28;20444;-72
2022/06/12 08:36:11;;;;;;;5.00;4.20;;;25.00;99.90;;;;;;4985578;28;20985;-70
2022/06/12 08:38:37;;;;;;;5.07;4.57;;;25.00;99.90;;;;;;4995495;28;20415;-69
2022/06/12 08:41:33;;;;;;;5.80;4.17;;;25.10;99.90;;;;;;5004341;28;20438;-71
2022/06/12 08:44:07;;;;;;;6.60;4.40;;;25.20;99.90;;;;;;4959593;28;20283;-70
2022/06/12 08:46:41;;;;;;;4.37;3.97;;;25.00;99.90;;;;;;4985646;28;20470;-68
2022/06/12 08:49:27;;;;;;;7.53;4.00;;;24.80;99.90;;;;;;4985555;28;20526;-70
2022/06/12 08:52:28;;;;;;;4.17;3.77;;;25.00;99.90;;;;;;4993813;28;20442;-72
2022/06/12 08:55:14;;;;;;;4.50;3.70;;;25.10;99.70;;;;;;4944086;29;20441;-71
2022/06/12 08:57:57;;;;;;;13.07;4.77;;;25.10;99.80;;;;;;4989406;28;20940;-70
2022/06/12 09:00:27;;;;;;;5.63;4.37;;;25.10;99.90;;;;;;4985159;28;20408;-71
2022/06/12 09:02:53;;;;;;;5.90;4.43;;;25.30;99.90;;;;;;4967825;28;20419;-71
2022/06/12 09:05:31;;;;;;;4.97;3.80;;;25.60;99.50;;;;;;4985375;28;20758;-71
2022/06/12 09:08:09;;;;;;;3.93;3.50;;;25.80;98.70;;;;;;4985505;28;20415;-70
2022/06/12 09:10:43;;;;;;;4.43;3.87;;;26.00;98.40;;;;;;4985063;28;20820;-70
2022/06/12 09:13:34;;;;;;;6.03;4.53;;;26.20;98.50;;;;;;4986883;28;20901;-71
2022/06/12 09:16:52;;;;;;;4.17;3.77;;;26.40;98.00;;;;;;4984897;28;20865;-71
2022/06/12 09:19:53;;;;;;;3.60;3.30;;;26.30;97.60;;;;;;4924633;29;20529;-71
2022/06/12 09:22:51;;;;;;;4.90;3.70;;;26.40;96.60;;;;;;4984753;28;20424;-71
2022/06/12 09:25:46;;;;;;;3.50;3.20;;;26.60;96.50;;;;;;4985049;28;20404;-71
2022/06/12 09:28:18;;;;;;;5.57;3.90;;;26.80;96.20;;;;;;4984534;28;20407;-71
2022/06/12 09:30:51;;;;;;;4.80;3.43;;;26.70;96.00;;;;;;4984781;28;20470;-71
2022/06/12 09:33:40;;;;;;;4.43;3.80;;;26.70;95.50;;;;;;4984688;28;20467;-71
2022/06/12 09:36:34;;;;;;;3.80;3.40;;;26.60;95.60;;;;;;4985278;28;20427;-72
2022/06/12 09:39:28;;;;;;;4.80;3.80;;;26.60;95.40;;;;;;4984950;28;20404;-71
2022/06/12 09:42:08;;;;;;;3.47;3.17;;;26.70;95.70;;;;;;4977360;28;20455;-73
2022/06/12 09:45:18;;;;;;;3.70;3.40;;;26.90;95.50;;;;;;5004254;28;20438;-72
2022/06/12 09:47:56;;;;;;;3.67;3.30;;;27.00;94.70;;;;;;5003605;28;21127;-71
2022/06/12 09:50:25;;;;;;;5.00;3.47;;;27.10;94.80;;;;;;5003863;28;20494;-72
2022/06/12 09:53:09;;;;;;;5.80;3.30;;;27.30;94.50;;;;;;5004414;28;20465;-72
2022/06/12 09:55:46;;;;;;;3.80;3.50;;;27.70;95.40;;;;;;5004478;28;20403;-71
2022/06/12 09:58:32;;;;;;;3.80;3.50;;;27.90;93.70;;;;;;4992070;28;20430;-72
2022/06/12 10:01:09;;;;;;;3.80;3.00;;;27.80;92.90;;;;;;5004321;28;20923;-71
2022/06/12 10:03:42;;;;;;;6.60;3.03;;;27.40;93.20;;;;;;5000194;28;20561;-72
2022/06/12 10:06:21;;;;;;;4.07;3.03;;;27.50;93.00;;;;;;4993390;28;20473;-72
2022/06/12 10:08:53;;;;;;;3.10;2.80;;;27.40;92.90;;;;;;4994363;28;20419;-72
2022/06/12 10:11:26;;;;;;;4.77;3.33;;;27.60;92.90;;;;;;5004528;28;20455;-70
2022/06/12 10:13:51;;;;;;;4.00;3.30;;;27.70;92.40;;;;;;4987595;28;20603;-71
2022/06/12 10:16:27;;;;;;;5.43;3.30;;;27.80;92.60;;;;;;4984766;28;20546;-71
2022/06/12 10:19:03;;;;;;;3.23;2.93;;;27.80;92.10;;;;;;4984687;28;20172;-71
2022/06/12 10:21:37;;;;;;;4.30;3.60;;;27.80;93.00;;;;;;4984258;28;20477;-72
2022/06/12 10:24:03;;;;;;;4.00;3.43;;;27.90;91.30;;;;;;4984652;28;20463;-71
2022/06/12 10:26:32;;;;;;;3.73;3.17;;;27.90;91.70;;;;;;4976906;28;20480;-71
2022/06/12 10:29:14;;;;;;;3.30;2.70;;;28.00;91.40;;;;;;4984629;28;20782;-72
2022/06/12 10:31:49;;;;;;;4.53;3.60;;;28.40;91.30;;;;;;4984097;28;20830;-71
2022/06/12 10:34:19;;;;;;;4.07;3.63;;;28.40;90.90;;;;;;4984338;28;20439;-70
2022/06/12 10:36:45;;;;;;;4.20;3.20;;;28.30;91.80;;;;;;4984448;28;20470;-70
2022/06/12 10:39:15;;;;;;;3.70;3.27;;;28.50;91.20;;;;;;4966717;28;20428;-71
2022/06/12 10:41:50;;;;;;;8.67;3.47;;;28.60;91.60;;;;;;4984317;28;20601;-71
2022/06/12 10:44:32;;;;;;;3.93;2.67;;;28.90;90.70;;;;;;4984301;28;20441;-70
2022/06/12 10:47:15;;;;;;;4.10;3.73;;;29.20;90.10;;;;;;4983821;28;20976;-70
2022/06/12 10:49:42;;;;;;;5.00;3.50;;;29.30;87.70;;;;;;4984176;28;20498;-70
2022/06/12 10:52:21;;;;;;;4.60;3.40;;;29.10;87.90;;;;;;4983833;28;20474;-71
2022/06/12 10:54:50;;;;;;;5.47;3.70;;;29.20;87.90;;;;;;4983551;28;20824;-69
2022/06/12 10:57:34;;;;;;;4.40;3.50;;;29.30;87.00;;;;;;4983497;28;20539;-71
2022/06/12 11:00:14;;;;;;;4.20;3.30;;;29.60;88.10;;;;;;4984073;28;20473;-70
2022/06/12 11:02:42;;;;;;;3.93;3.10;;;29.90;88.40;;;;;;4984486;28;20455;-70
2022/06/12 11:05:32;;;;;;;4.07;3.67;;;30.30;85.10;;;;;;4987283;28;20443;-70
2022/06/12 11:08:03;;;;;;;3.40;3.10;;;29.90;84.70;;;;;;4988703;28;20806;-71
2022/06/12 11:10:32;;;;;;;3.93;3.37;;;30.10;84.80;;;;;;4997385;28;20530;-71
2022/06/12 11:13:16;;;;;;;4.07;2.97;;;30.10;84.20;;;;;;5006528;28;20463;-71
2022/06/12 11:15:44;;;;;;;4.47;3.20;;;30.00;84.40;;;;;;5006967;28;20505;-71
2022/06/12 11:18:25;;;;;;;3.57;3.37;;;30.00;83.50;;;;;;5007130;28;20795;-71
2022/06/12 11:21:20;;;;;;;4.80;3.20;;;29.90;83.10;;;;;;5006794;28;20518;-70
2022/06/12 11:23:57;;;;;;;3.80;3.50;;;30.00;83.00;;;;;;5006170;28;20453;-71
2022/06/12 11:26:28;;;;;;;5.10;3.53;;;30.00;83.70;;;;;;5006964;28;20816;-71
2022/06/12 11:29:17;;;;;;;3.30;2.93;;;30.30;82.70;;;;;;5006425;28;20407;-71
2022/06/12 11:32:11;;;;;;;3.97;3.00;;;31.00;81.50;;;;;;5006633;28;20451;-70
2022/06/12 11:34:45;;;;;;;3.60;3.30;;;31.40;78.00;;;;;;5006236;28;20431;-71
2022/06/12 11:37:46;;;;;;;3.17;2.87;;;33.40;74.90;;;;;;4997073;28;20469;-72
2022/06/12 11:40:24;;;;;;;3.27;2.93;;;33.30;72.10;;;;;;4987087;28;21551;-73
2022/06/12 11:43:27;;;;;;;4.30;3.07;;;32.80;71.20;;;;;;4988440;28;20838;-72
2022/06/12 11:46:04;;;;;;;3.33;3.03;;;33.60;68.50;;;;;;5000289;28;20418;-71
2022/06/12 11:48:51;;;;;;;4.20;3.43;;;33.30;68.70;;;;;;5006303;28;20411;-72
2022/06/12 11:51:27;;;;;;;3.13;2.90;;;32.80;70.00;;;;;;5006306;28;20418;-71
2022/06/12 11:54:10;;;;;;;3.33;3.03;;;31.90;71.30;;;;;;5006148;28;20418;-71
2022/06/12 11:56:46;;;;;;;4.40;2.90;;;32.20;69.60;;;;;;5006121;28;20411;-72
2022/06/12 11:59:34;;;;;;;3.50;3.20;;;31.90;69.70;;;;;;5005889;28;20769;-71
2022/06/12 12:02:35;;;;;;;4.30;2.90;;;32.00;72.50;;;;;;5005966;28;20403;-71
2022/06/12 12:05:16;;;;;;;3.23;2.83;;;31.70;70.20;;;;;;5005867;28;20843;-73
2022/06/12 12:08:09;;;;;;;5.13;3.57;;;32.00;71.50;;;;;;4992548;28;20415;-73
2022/06/12 12:10:40;;;;;;;3.30;3.00;;;32.30;69.70;;;;;;4986343;28;20950;-71
2022/06/12 12:13:11;;;;;;;3.33;3.00;;;32.40;69.30;;;;;;4985790;28;20459;-72
2022/06/12 12:15:49;;;;;;;3.53;3.23;;;31.80;71.10;;;;;;4986456;28;20487;-72
2022/06/12 12:18:38;;;;;;;3.50;3.20;;;32.30;70.70;;;;;;4986026;28;20406;-72
2022/06/12 12:21:13;;;;;;;3.77;2.90;;;32.90;68.10;;;;;;4986217;28;20404;-71
2022/06/12 12:23:43;;;;;;;2.97;2.70;;;33.40;67.30;;;;;;4986269;28;20526;-72
2022/06/12 12:26:17;;;;;;;4.93;3.40;;;33.40;68.40;;;;;;4968873;28;20434;-72
2022/06/12 12:28:57;;;;;;;3.60;2.87;;;33.00;69.00;;;;;;4986041;28;20403;-72
2022/06/12 12:31:24;;;;;;;4.10;3.50;;;32.90;68.00;;;;;;4986042;28;20477;-72
2022/06/12 12:33:52;;;;;;;3.10;2.90;;;32.70;69.70;;;;;;4986031;28;20447;-73
2022/06/12 12:41:56;;;;;;;6.00;3.40;;;32.20;68.30;;;;;;4986050;28;20471;-71
2022/06/12 12:44:34;;;;;;;3.40;3.10;;;32.10;68.20;;;;;;4985651;28;20490;-71
2022/06/12 12:47:01;;;;;;;4.73;3.20;;;31.30;68.10;;;;;;4985647;28;20407;-71
2022/06/12 12:49:35;;;;;;;2.70;2.30;;;32.20;66.80;;;;;;4985469;28;20431;-73
2022/06/12 12:52:07;;;;;;;3.13;2.73;;;33.60;64.00;;;;;;4985589;28;20548;-71
2022/06/12 12:54:47;;;;;;;4.13;3.13;;;33.40;64.40;;;;;;4985863;28;20477;-72
2022/06/12 12:57:16;;;;;;;3.07;2.80;;;32.70;65.20;;;;;;4985542;28;20414;-72
2022/06/12 12:59:52;;;;;;;3.87;2.93;;;32.00;66.50;;;;;;4985269;28;20485;-72
2022/06/12 13:02:21;;;;;;;3.80;3.13;;;31.60;68.10;;;;;;4985388;28;20866;-71
2022/06/12 13:04:47;;;;;;;3.00;2.70;;;32.20;67.60;;;;;;4984901;28;20517;-73
2022/06/12 13:07:26;;;;;;;4.10;2.93;;;33.10;64.50;;;;;;4988766;28;20511;-72
2022/06/12 13:10:00;;;;;;;4.90;2.57;;;34.40;63.90;;;;;;4990594;28;20410;-72
2022/06/12 13:12:53;;;;;;;3.67;2.57;;;34.80;60.20;;;;;;4986535;28;20982;-73
2022/06/12 13:15:25;;;;;;;2.57;2.27;;;35.10;60.50;;;;;;4985279;28;20925;-72
2022/06/12 13:18:17;;;;;;;3.53;2.20;;;35.40;60.30;;;;;;4985302;28;20414;-72
2022/06/12 13:21:03;;;;;;;2.57;2.37;;;36.80;56.60;;;;;;4985207;28;20408;-73
2022/06/12 13:23:57;;;;;;;6.80;2.60;;;35.10;58.80;;;;;;4984969;28;20444;-73
2022/06/12 13:26:25;;;;;;;3.67;2.87;;;32.90;61.90;;;;;;4984572;28;20502;-71
2022/06/12 13:29:03;;;;;;;5.00;2.63;;;32.00;65.20;;;;;;4984562;28;20453;-73
2022/06/12 13:31:33;;;;;;;2.83;2.43;;;32.50;64.30;;;;;;4984832;28;20451;-73
2022/06/12 13:34:00;;;;;;;2.97;2.77;;;33.60;63.30;;;;;;4984911;28;20511;-72
2022/06/12 13:36:32;;;;;;;3.23;2.30;;;34.00;62.30;;;;;;4984858;28;20422;-71
2022/06/12 13:39:04;;;;;;;2.93;2.60;;;33.90;63.50;;;;;;4984811;28;20462;-72
2022/06/12 13:41:40;;;;;;;3.10;2.80;;;33.70;62.00;;;;;;4984704;28;20423;-71
2022/06/12 13:44:41;;;;;;;2.77;2.57;;;33.10;62.90;;;;;;4997306;28;20438;-72